createdAt,value
2022-11-27T00:00:04.235Z,4.03
2022-11-27T00:00:44.990Z,4.00
2022-11-27T00:01:23.106Z,4.45
2022-11-27T00:01:57.800Z,5.13
2022-11-27T00:02:30.003Z,4.95
2022-11-27T00:03:02.394Z,4.72
2022-11-27T00:03:37.414Z,4.35
2022-11-27T00:04:13.706Z,4.72
2022-11-27T00:04:48.441Z,4.82
2022-11-27T00:05:23.122Z,4.38
2022-11-27T00:05:56.863Z,4.53
2022-11-27T00:06:30.069Z,4.40
2022-11-27T00:07:04.761Z,4.53
2022-11-27T00:07:36.940Z,4.00
2022-11-27T00:08:09.079Z,4.32
2022-11-27T00:08:43.898Z,4.43
2022-11-27T00:09:16.811Z,3.80
2022-11-27T00:09:51.507Z,3.83
2022-11-27T00:10:23.885Z,4.40
2022-11-27T00:10:55.982Z,4.60
2022-11-27T00:11:32.414Z,4.30
2022-11-27T00:12:05.082Z,4.28
2022-11-27T00:12:39.794Z,4.07
2022-11-27T00:13:11.857Z,4.20
2022-11-27T00:13:44.115Z,4.57
2022-11-27T00:14:20.066Z,4.45
2022-11-27T00:14:55.412Z,4.68
2022-11-27T00:15:30.426Z,4.97
2022-11-27T00:16:02.604Z,4.82
2022-11-27T00:16:34.806Z,4.80
2022-11-27T00:17:09.493Z,4.80
2022-11-27T00:17:41.749Z,4.88
2022-11-27T00:18:13.841Z,4.63
2022-11-27T00:18:48.955Z,5.22
2022-11-27T00:19:21.041Z,4.70
2022-11-27T00:19:58.273Z,3.80
2022-11-27T00:20:30.345Z,3.75
2022-11-27T00:21:04.147Z,4.35
2022-11-27T00:21:39.692Z,4.25
2022-11-27T00:22:11.875Z,5.68
2022-11-27T00:22:43.974Z,4.10
2022-11-27T00:23:18.692Z,4.10
2022-11-27T00:23:51.281Z,4.10
2022-11-27T00:24:23.348Z,5.22
2022-11-27T00:24:58.066Z,4.55
2022-11-27T00:25:30.210Z,4.82
2022-11-27T00:26:03.265Z,4.57
2022-11-27T00:26:38.593Z,5.00
2022-11-27T00:27:10.817Z,5.00
2022-11-27T00:27:46.291Z,4.43
2022-11-27T00:28:18.435Z,4.40
2022-11-27T00:28:50.883Z,4.93
2022-11-27T00:29:29.138Z,4.38
2022-11-27T00:30:01.237Z,4.20
2022-11-27T00:30:33.348Z,4.78
2022-11-27T00:31:17.800Z,4.88
2022-11-27T00:31:49.935Z,4.32
2022-11-27T00:32:21.982Z,4.30
2022-11-27T00:32:56.683Z,3.08
2022-11-27T00:33:29.039Z,4.63
2022-11-27T00:34:04.806Z,4.85
2022-11-27T00:34:39.979Z,4.32
2022-11-27T00:35:14.949Z,4.65
2022-11-27T00:35:47.085Z,4.60
2022-11-27T00:36:21.743Z,4.28
2022-11-27T00:36:53.903Z,4.68
2022-11-27T00:37:25.949Z,3.70
2022-11-27T00:38:00.729Z,4.00
2022-11-27T00:38:38.525Z,3.83
2022-11-27T00:39:11.005Z,4.03
2022-11-27T00:39:45.667Z,3.72
2022-11-27T00:40:18.005Z,3.55
2022-11-27T00:40:50.215Z,3.20
2022-11-27T00:41:28.174Z,3.85
2022-11-27T00:42:00.294Z,3.80
2022-11-27T00:42:32.384Z,4.13
2022-11-27T00:43:07.154Z,3.83
2022-11-27T00:43:44.355Z,3.60
2022-11-27T00:44:19.975Z,4.10
2022-11-27T00:44:52.221Z,3.75
2022-11-27T00:45:24.329Z,3.78
2022-11-27T00:45:59.067Z,3.67
2022-11-27T00:46:33.212Z,3.65
2022-11-27T00:47:08.174Z,4.00
2022-11-27T00:47:40.290Z,3.63
2022-11-27T00:48:12.756Z,4.35
2022-11-27T00:48:47.820Z,3.85
2022-11-27T00:49:19.889Z,3.90
2022-11-27T00:49:51.998Z,3.70
2022-11-27T00:50:31.876Z,3.83
2022-11-27T00:51:06.466Z,4.15
2022-11-27T00:51:38.577Z,4.03
2022-11-27T00:52:13.235Z,4.13
2022-11-27T00:52:45.421Z,3.58
2022-11-27T00:53:17.722Z,3.92
2022-11-27T00:53:52.742Z,3.58
2022-11-27T00:54:24.825Z,3.58
2022-11-27T00:54:59.520Z,3.65
2022-11-27T00:55:31.626Z,3.58
2022-11-27T00:56:04.601Z,3.20
2022-11-27T00:56:41.318Z,4.10
2022-11-27T00:57:13.392Z,3.90
2022-11-27T00:57:45.471Z,4.35
2022-11-27T00:58:20.221Z,3.83
2022-11-27T00:58:53.095Z,4.13
2022-11-27T00:59:27.844Z,3.92
2022-11-27T00:59:59.950Z,3.20
2022-11-27T01:00:32.231Z,3.42
2022-11-27T01:01:07.280Z,3.28
2022-11-27T01:01:44.307Z,3.60
2022-11-27T01:02:16.580Z,3.50
2022-11-27T01:02:48.752Z,3.63
2022-11-27T01:03:23.516Z,4.10
2022-11-27T01:03:56.278Z,3.65
2022-11-27T01:04:30.959Z,3.75
2022-11-27T01:05:03.037Z,3.88
2022-11-27T01:05:38.797Z,3.15
2022-11-27T01:06:13.489Z,3.70
2022-11-27T01:06:45.774Z,4.18
2022-11-27T01:07:17.982Z,4.38
2022-11-27T01:07:52.775Z,3.30
2022-11-27T01:08:24.944Z,4.13
2022-11-27T01:08:57.601Z,3.60
2022-11-27T01:09:32.265Z,3.85
2022-11-27T01:10:05.261Z,4.13
2022-11-27T01:10:37.322Z,3.83
2022-11-27T01:11:17.386Z,3.97
2022-11-27T01:11:49.540Z,3.22
2022-11-27T01:12:21.720Z,3.72
2022-11-27T01:12:56.430Z,3.80
2022-11-27T01:13:30.581Z,3.83
2022-11-27T01:14:04.676Z,3.53
2022-11-27T01:14:39.610Z,3.75
2022-11-27T01:15:11.982Z,3.42
2022-11-27T01:15:44.319Z,3.47
2022-11-27T01:16:21.761Z,3.42
2022-11-27T01:16:53.906Z,3.65
2022-11-27T01:17:26.032Z,3.58
2022-11-27T01:18:00.704Z,3.20
2022-11-27T01:18:32.917Z,4.05
2022-11-27T01:19:05.423Z,4.05
2022-11-27T01:19:40.566Z,3.67
2022-11-27T01:20:13.305Z,4.00
2022-11-27T01:20:52.725Z,3.67
2022-11-27T01:21:28.589Z,3.60
2022-11-27T01:22:00.684Z,3.90
2022-11-27T01:22:33.978Z,3.58
2022-11-27T01:23:08.752Z,3.67
2022-11-27T01:23:40.945Z,3.45
2022-11-27T01:24:17.322Z,4.07
2022-11-27T01:24:49.462Z,3.60
2022-11-27T01:25:26.643Z,3.60
2022-11-27T01:26:00.548Z,3.42
2022-11-27T01:26:35.334Z,3.92
2022-11-27T01:27:07.417Z,3.78
2022-11-27T01:27:39.502Z,3.95
2022-11-27T01:28:14.161Z,4.30
2022-11-27T01:28:46.714Z,3.85
2022-11-27T01:29:21.424Z,4.07
2022-11-27T01:29:53.486Z,3.83
2022-11-27T01:30:25.700Z,3.97
2022-11-27T01:31:00.721Z,3.72
2022-11-27T01:31:34.533Z,3.63
2022-11-27T01:32:09.325Z,4.15
2022-11-27T01:32:41.446Z,3.83
2022-11-27T01:33:13.543Z,4.00
2022-11-27T01:33:48.812Z,3.63
2022-11-27T01:34:21.033Z,4.30
2022-11-27T01:34:54.507Z,3.33
2022-11-27T01:35:29.382Z,3.85
2022-11-27T01:36:06.893Z,3.55
2022-11-27T01:36:41.681Z,3.30
2022-11-27T01:37:13.810Z,3.95
2022-11-27T01:37:45.997Z,3.85
2022-11-27T01:38:20.722Z,4.10
2022-11-27T01:38:53.037Z,3.78
2022-11-27T01:39:27.698Z,3.78
2022-11-27T01:39:59.758Z,3.50
2022-11-27T01:40:31.954Z,4.50
2022-11-27T01:41:10.309Z,3.70
2022-11-27T01:41:42.605Z,3.58
2022-11-27T01:42:17.357Z,3.55
2022-11-27T01:42:49.512Z,3.75
2022-11-27T01:43:37.271Z,3.95
2022-11-27T01:44:42.220Z,3.30
2022-11-27T01:45:16.324Z,4.07
2022-11-27T01:45:51.020Z,3.50
2022-11-27T01:46:31.614Z,3.42
2022-11-27T01:47:07.336Z,4.18
2022-11-27T01:47:48.573Z,4.55
2022-11-27T01:48:20.855Z,4.25
2022-11-27T01:48:54.517Z,3.63
2022-11-27T01:49:35.699Z,3.80
2022-11-27T01:50:14.377Z,3.72
2022-11-27T01:50:46.481Z,4.07
2022-11-27T01:51:25.585Z,3.92
2022-11-27T01:52:02.221Z,3.42
2022-11-27T01:52:38.271Z,3.85
2022-11-27T01:53:16.583Z,3.88
2022-11-27T01:53:50.081Z,3.90
2022-11-27T01:54:25.135Z,3.58
2022-11-27T01:55:04.869Z,3.60
2022-11-27T01:55:43.418Z,3.85
2022-11-27T01:56:18.612Z,4.55
2022-11-27T01:56:56.399Z,4.15
2022-11-27T01:57:31.306Z,4.18
2022-11-27T01:58:10.475Z,4.38
2022-11-27T01:58:42.946Z,3.88
2022-11-27T01:59:16.682Z,4.10
2022-11-27T01:59:53.411Z,4.05
2022-11-27T02:00:26.243Z,3.75
2022-11-27T02:00:58.945Z,4.25
2022-11-27T02:01:33.876Z,4.20
2022-11-27T02:02:06.281Z,4.47
2022-11-27T02:02:38.459Z,4.18
2022-11-27T02:03:13.829Z,4.93
2022-11-27T02:03:45.985Z,4.50
2022-11-27T02:04:19.410Z,4.30
2022-11-27T02:04:54.361Z,4.43
2022-11-27T02:05:28.823Z,4.63
2022-11-27T02:06:01.075Z,4.22
2022-11-27T02:06:38.457Z,4.15
2022-11-27T02:07:10.756Z,4.15
2022-11-27T02:07:43.139Z,4.70
2022-11-27T02:08:19.618Z,4.45
2022-11-27T02:08:52.132Z,4.65
2022-11-27T02:09:24.403Z,3.88
2022-11-27T02:09:59.241Z,4.03
2022-11-27T02:10:43.082Z,4.18
2022-11-27T02:11:22.960Z,4.10
2022-11-27T02:12:02.298Z,4.30
2022-11-27T02:12:44.745Z,4.68
2022-11-27T02:13:26.062Z,3.92
2022-11-27T02:14:08.670Z,3.95
2022-11-27T02:14:52.478Z,4.45
2022-11-27T02:15:33.304Z,4.32
2022-11-27T02:16:17.619Z,5.18
2022-11-27T02:17:00.765Z,3.58
2022-11-27T02:17:41.482Z,4.35
2022-11-27T02:18:19.123Z,4.43
2022-11-27T02:19:00.577Z,4.50
2022-11-27T02:19:50.758Z,4.75
2022-11-27T02:20:35.079Z,4.32
2022-11-27T02:21:17.096Z,4.40
2022-11-27T02:21:57.842Z,3.88
2022-11-27T02:22:54.505Z,4.32
2022-11-27T02:24:01.716Z,4.25
2022-11-27T02:24:49.366Z,4.00
2022-11-27T02:25:37.381Z,4.07
2022-11-27T02:26:33.141Z,4.75
2022-11-27T02:27:30.648Z,4.22
2022-11-27T02:28:29.360Z,4.75
2022-11-27T02:29:10.687Z,3.42
2022-11-27T02:29:45.554Z,4.20
2022-11-27T02:30:18.070Z,4.25
2022-11-27T02:30:59.594Z,3.55
2022-11-27T02:31:39.373Z,3.88
2022-11-27T02:32:24.089Z,4.43
2022-11-27T02:32:59.798Z,3.70
2022-11-27T02:33:35.252Z,3.92
2022-11-27T02:34:18.748Z,3.72
2022-11-27T02:34:58.077Z,4.10
2022-11-27T02:35:34.625Z,3.88
2022-11-27T02:36:12.965Z,4.03
2022-11-27T02:36:50.354Z,3.97
2022-11-27T02:37:32.691Z,4.13
2022-11-27T02:38:12.330Z,4.57
2022-11-27T02:38:49.538Z,4.28
2022-11-27T02:39:27.794Z,4.75
2022-11-27T02:40:08.201Z,3.63
2022-11-27T02:41:21.118Z,4.00
2022-11-27T02:42:00.725Z,3.70
2022-11-27T02:42:40.453Z,3.47
2022-11-27T02:43:16.001Z,3.53
2022-11-27T02:43:49.834Z,4.30
2022-11-27T02:44:32.189Z,4.07
2022-11-27T02:45:08.928Z,3.50
2022-11-27T02:45:44.387Z,3.97
2022-11-27T02:46:21.374Z,4.40
2022-11-27T02:46:54.377Z,3.75
2022-11-27T02:47:28.076Z,4.00
2022-11-27T02:48:02.897Z,4.88
2022-11-27T02:48:38.355Z,3.90
2022-11-27T02:49:17.046Z,3.85
2022-11-27T02:49:57.117Z,4.25
2022-11-27T02:50:32.314Z,4.50
2022-11-27T02:51:07.226Z,4.05
2022-11-27T02:51:45.208Z,3.85
2022-11-27T02:52:20.208Z,3.40
2022-11-27T02:52:57.942Z,3.10
2022-11-27T02:53:37.952Z,3.83
2022-11-27T02:54:14.830Z,4.20
2022-11-27T02:54:50.283Z,3.50
2022-11-27T02:55:29.083Z,3.22
2022-11-27T02:56:05.450Z,3.80
2022-11-27T02:56:39.415Z,3.88
2022-11-27T02:57:16.822Z,3.70
2022-11-27T02:57:51.292Z,3.70
2022-11-27T02:58:27.018Z,3.60
2022-11-27T02:59:04.721Z,4.40
2022-11-27T02:59:41.996Z,4.30
2022-11-27T03:00:15.358Z,3.42
2022-11-27T03:00:50.794Z,3.70
2022-11-27T03:01:24.695Z,4.20
2022-11-27T03:02:04.111Z,3.95
2022-11-27T03:02:42.037Z,4.15
2022-11-27T03:03:21.879Z,3.97
2022-11-27T03:03:58.071Z,3.88
2022-11-27T03:04:35.256Z,4.00
2022-11-27T03:05:15.858Z,3.28
2022-11-27T03:05:51.684Z,3.90
2022-11-27T03:06:28.351Z,4.03
2022-11-27T03:07:08.401Z,4.43
2022-11-27T03:07:44.553Z,3.47
2022-11-27T03:08:25.986Z,4.05
2022-11-27T03:09:01.785Z,3.70
2022-11-27T03:09:36.196Z,4.20
2022-11-27T03:10:19.352Z,4.03
2022-11-27T03:11:01.730Z,4.85
2022-11-27T03:11:34.473Z,3.50
2022-11-27T03:12:11.652Z,4.28
2022-11-27T03:12:43.768Z,4.07
2022-11-27T03:13:16.200Z,3.80
2022-11-27T03:13:56.206Z,3.55
2022-11-27T03:14:28.707Z,4.00
2022-11-27T03:15:06.899Z,4.28
2022-11-27T03:15:45.576Z,3.92
2022-11-27T03:16:27.301Z,4.30
2022-11-27T03:17:09.294Z,4.45
2022-11-27T03:17:53.207Z,4.35
2022-11-27T03:18:35.694Z,3.88
2022-11-27T03:19:19.347Z,4.10
2022-11-27T03:19:56.572Z,3.60
2022-11-27T03:20:33.053Z,4.28
2022-11-27T03:21:15.649Z,4.20
2022-11-27T03:21:52.262Z,3.80
2022-11-27T03:22:26.883Z,3.47
2022-11-27T03:23:01.994Z,4.20
2022-11-27T03:23:34.123Z,3.80
2022-11-27T03:24:07.862Z,4.05
2022-11-27T03:24:42.817Z,4.03
2022-11-27T03:25:16.383Z,4.22
2022-11-27T03:25:48.575Z,4.22
2022-11-27T03:26:23.365Z,4.22
2022-11-27T03:26:57.637Z,4.20
2022-11-27T03:27:35.661Z,4.63
2022-11-27T03:28:11.074Z,4.90
2022-11-27T03:28:48.319Z,4.45
2022-11-27T03:29:23.628Z,3.90
2022-11-27T03:29:58.541Z,4.63
2022-11-27T03:30:36.071Z,4.55
2022-11-27T03:31:08.540Z,4.53
2022-11-27T03:31:40.942Z,4.45
2022-11-27T03:32:15.797Z,4.20
2022-11-27T03:32:48.052Z,4.20
2022-11-27T03:33:20.166Z,4.63
2022-11-27T03:33:55.905Z,4.65
2022-11-27T03:34:29.026Z,4.20
2022-11-27T03:35:02.479Z,4.35
2022-11-27T03:35:37.153Z,4.55
2022-11-27T03:36:14.277Z,4.30
2022-11-27T03:36:46.671Z,4.00
2022-11-27T03:37:21.476Z,4.38
2022-11-27T03:37:54.270Z,4.70
2022-11-27T03:38:28.953Z,4.18
2022-11-27T03:39:01.110Z,3.97
2022-11-27T03:39:34.378Z,4.20
2022-11-27T03:40:11.124Z,5.22
2022-11-27T03:40:51.679Z,4.60
2022-11-27T03:41:32.479Z,4.78
2022-11-27T03:42:19.328Z,4.63
2022-11-27T03:43:03.884Z,4.47
2022-11-27T03:43:43.093Z,5.07
2022-11-27T03:44:28.914Z,5.05
2022-11-27T03:45:08.073Z,4.75
2022-11-27T03:45:52.518Z,5.20
2022-11-27T03:46:36.004Z,5.10
2022-11-27T03:47:16.362Z,4.90
2022-11-27T03:48:39.006Z,4.55
2022-11-27T03:49:19.917Z,5.28
2022-11-27T03:50:09.285Z,4.60
2022-11-27T03:50:54.947Z,3.92
2022-11-27T03:51:36.688Z,4.30
2022-11-27T03:52:19.882Z,4.40
2022-11-27T03:53:06.041Z,4.25
2022-11-27T03:53:50.499Z,4.32
2022-11-27T03:54:36.971Z,5.20
2022-11-27T03:55:15.961Z,4.45
2022-11-27T03:55:58.001Z,4.25
2022-11-27T03:56:38.225Z,4.40
2022-11-27T03:57:22.074Z,4.25
2022-11-27T03:57:59.365Z,5.05
2022-11-27T03:58:35.848Z,4.38
2022-11-27T03:59:15.459Z,4.07
2022-11-27T03:59:52.912Z,3.85
2022-11-27T04:00:25.377Z,4.03
2022-11-27T04:01:04.442Z,4.40
2022-11-27T04:01:37.297Z,3.90
2022-11-27T04:02:13.975Z,4.00
2022-11-27T04:02:50.518Z,4.10
2022-11-27T04:03:25.017Z,3.78
2022-11-27T04:03:57.264Z,4.93
2022-11-27T04:04:31.952Z,5.22
2022-11-27T04:05:04.378Z,4.53
2022-11-27T04:05:36.466Z,5.20
2022-11-27T04:06:11.860Z,5.40
2022-11-27T04:06:44.137Z,4.25
2022-11-27T04:07:17.704Z,4.97
2022-11-27T04:07:52.619Z,4.35
2022-11-27T04:08:25.480Z,4.47
2022-11-27T04:08:57.745Z,4.65
2022-11-27T04:09:32.432Z,4.80
2022-11-27T04:10:06.085Z,3.95
2022-11-27T04:10:38.170Z,4.57
2022-11-27T04:11:12.816Z,4.88
2022-11-27T04:11:44.916Z,4.30
2022-11-27T04:12:17.034Z,3.88
2022-11-27T04:12:51.760Z,4.85
2022-11-27T04:13:23.874Z,3.90
2022-11-27T04:13:58.572Z,4.07
2022-11-27T04:14:30.657Z,4.20
2022-11-27T04:15:03.270Z,4.90
2022-11-27T04:15:37.995Z,3.95
2022-11-27T04:16:12.766Z,3.95
2022-11-27T04:16:44.990Z,4.40
2022-11-27T04:17:19.825Z,4.35
2022-11-27T04:17:52.024Z,4.38
2022-11-27T04:18:24.211Z,5.35
2022-11-27T04:18:58.898Z,4.28
2022-11-27T04:19:30.998Z,4.50
2022-11-27T04:20:03.689Z,4.55
2022-11-27T04:20:38.551Z,4.57
2022-11-27T04:21:12.125Z,4.85
2022-11-27T04:21:44.194Z,5.25
2022-11-27T04:22:18.929Z,4.63
2022-11-27T04:22:51.116Z,5.15
2022-11-27T04:23:23.165Z,5.10
2022-11-27T04:23:57.897Z,4.45
2022-11-27T04:24:30.036Z,4.40
2022-11-27T04:25:02.185Z,4.72
2022-11-27T04:25:36.860Z,4.32
2022-11-27T04:26:09.244Z,4.40
2022-11-27T04:26:41.373Z,4.50
2022-11-27T04:27:16.029Z,3.90
2022-11-27T04:27:48.102Z,3.97
2022-11-27T04:28:20.306Z,4.90
2022-11-27T04:28:54.955Z,3.78
2022-11-27T04:29:27.020Z,4.65
2022-11-27T04:29:59.265Z,4.82
2022-11-27T04:30:34.038Z,4.82
2022-11-27T04:31:06.626Z,4.68
2022-11-27T04:31:41.458Z,4.75
2022-11-27T04:32:17.565Z,4.38
2022-11-27T04:32:49.658Z,5.25
2022-11-27T04:33:25.102Z,4.55
2022-11-27T04:33:57.178Z,5.00
2022-11-27T04:34:29.313Z,4.65
2022-11-27T04:35:05.057Z,4.68
2022-11-27T04:35:37.212Z,4.88
2022-11-27T04:36:09.388Z,4.38
2022-11-27T04:36:44.131Z,4.72
2022-11-27T04:37:16.286Z,4.63
2022-11-27T04:37:48.365Z,4.43
2022-11-27T04:38:24.221Z,4.35
2022-11-27T04:38:56.314Z,4.57
2022-11-27T04:39:31.086Z,4.20
2022-11-27T04:40:04.171Z,4.53
2022-11-27T04:40:36.216Z,4.18
2022-11-27T04:41:10.907Z,4.30
2022-11-27T04:41:42.984Z,4.63
2022-11-27T04:42:15.134Z,5.43
2022-11-27T04:42:50.792Z,6.03
2022-11-27T04:43:22.999Z,5.50
2022-11-27T04:43:55.141Z,5.32
2022-11-27T04:44:29.813Z,4.80
2022-11-27T04:45:01.875Z,5.45
2022-11-27T04:45:33.977Z,4.50
2022-11-27T04:46:08.695Z,4.85
2022-11-27T04:46:43.723Z,4.97
2022-11-27T04:47:16.001Z,5.38
2022-11-27T04:47:50.873Z,5.40
2022-11-27T04:48:22.976Z,5.13
2022-11-27T04:48:55.161Z,4.80
2022-11-27T04:49:29.859Z,6.47
2022-11-27T04:50:02.023Z,7.28
2022-11-27T04:50:34.104Z,5.65
2022-11-27T04:51:09.074Z,4.95
2022-11-27T04:51:41.188Z,5.43
2022-11-27T04:52:13.296Z,5.55
2022-11-27T04:52:47.959Z,5.78
2022-11-27T04:53:20.029Z,9.73
2022-11-27T04:53:52.093Z,5.70
2022-11-27T04:54:26.856Z,5.80
2022-11-27T04:55:00.484Z,6.00
2022-11-27T04:55:32.790Z,5.88
2022-11-27T04:56:07.950Z,5.78
2022-11-27T04:56:40.102Z,5.53
2022-11-27T04:57:12.146Z,6.97
2022-11-27T04:57:46.882Z,6.50
2022-11-27T04:58:18.959Z,5.97
2022-11-27T04:58:51.094Z,5.07
2022-11-27T04:59:25.745Z,5.53
2022-11-27T04:59:57.853Z,4.93
2022-11-27T05:00:30.000Z,5.45
2022-11-27T05:01:04.750Z,6.00
2022-11-27T05:01:37.167Z,5.20
2022-11-27T05:02:11.807Z,6.10
2022-11-27T05:02:46.594Z,4.78
2022-11-27T05:03:19.095Z,5.07
2022-11-27T05:03:51.193Z,5.20
2022-11-27T05:04:26.273Z,5.18
2022-11-27T05:04:58.396Z,5.20
2022-11-27T05:05:30.699Z,4.85
2022-11-27T05:06:05.854Z,5.68
2022-11-27T05:06:37.942Z,5.38
2022-11-27T05:07:10.062Z,5.13
2022-11-27T05:07:45.000Z,4.68
2022-11-27T05:08:17.269Z,5.47
2022-11-27T05:08:49.871Z,5.03
2022-11-27T05:09:24.587Z,5.20
2022-11-27T05:09:56.724Z,5.05
2022-11-27T05:10:31.392Z,5.25
2022-11-27T05:11:05.972Z,5.25
2022-11-27T05:11:38.184Z,5.03
2022-11-27T05:12:12.872Z,4.97
2022-11-27T05:12:44.962Z,4.65
2022-11-27T05:13:17.038Z,5.05
2022-11-27T05:14:11.792Z,5.07
2022-11-27T05:14:43.966Z,5.40
2022-11-27T05:15:18.973Z,5.53
2022-11-27T05:15:51.225Z,4.97
2022-11-27T05:16:23.456Z,5.72
2022-11-27T05:17:00.143Z,5.03
2022-11-27T05:17:34.810Z,4.90
2022-11-27T05:18:07.045Z,5.20
2022-11-27T05:18:41.697Z,5.38
2022-11-27T05:19:14.571Z,6.60
2022-11-27T05:19:49.234Z,5.90
2022-11-27T05:20:21.291Z,4.82
2022-11-27T05:20:58.082Z,5.18
2022-11-27T05:21:31.051Z,5.47
2022-11-27T05:22:05.972Z,5.70
2022-11-27T05:22:38.136Z,5.97
2022-11-27T05:23:10.203Z,5.30
2022-11-27T05:23:44.868Z,6.03
2022-11-27T05:24:18.962Z,5.45
2022-11-27T05:24:51.189Z,6.50
2022-11-27T05:25:25.877Z,8.35
2022-11-27T05:25:58.258Z,6.22
2022-11-27T05:26:30.341Z,5.68
2022-11-27T05:27:05.190Z,5.35
2022-11-27T05:27:37.307Z,6.75
2022-11-27T05:28:09.455Z,5.90
2022-11-27T05:28:44.174Z,5.13
2022-11-27T05:29:17.015Z,5.60
2022-11-27T05:29:49.144Z,5.55
2022-11-27T05:30:23.817Z,5.78
2022-11-27T05:30:56.015Z,5.55
2022-11-27T05:31:28.223Z,5.78
2022-11-27T05:32:02.941Z,5.30
2022-11-27T05:32:38.181Z,5.78
2022-11-27T05:33:10.339Z,5.78
2022-11-27T05:33:45.051Z,5.45
2022-11-27T05:34:17.188Z,6.32
2022-11-27T05:34:52.104Z,6.00
2022-11-27T05:35:24.195Z,5.05
2022-11-27T05:35:56.294Z,5.95
2022-11-27T05:36:31.691Z,5.68
2022-11-27T05:37:03.816Z,5.22
2022-11-27T05:37:35.909Z,5.28
2022-11-27T05:38:10.558Z,6.32
2022-11-27T05:38:42.643Z,5.93
2022-11-27T05:39:15.338Z,6.55
2022-11-27T05:39:50.037Z,6.85
2022-11-27T05:40:22.269Z,6.13
2022-11-27T05:40:57.292Z,6.70
2022-11-27T05:41:29.615Z,8.05
2022-11-27T05:42:01.739Z,6.50
2022-11-27T05:42:36.469Z,6.68
2022-11-27T05:43:08.663Z,5.40
2022-11-27T05:43:41.983Z,5.13
2022-11-27T05:44:18.234Z,5.70
2022-11-27T05:44:55.286Z,6.45
2022-11-27T05:45:30.101Z,4.68
2022-11-27T05:46:08.183Z,5.95
2022-11-27T05:46:40.524Z,4.80
2022-11-27T05:47:15.321Z,5.82
2022-11-27T05:47:49.985Z,6.18
2022-11-27T05:48:22.116Z,5.80
2022-11-27T05:48:56.996Z,5.32
2022-11-27T05:49:29.108Z,5.45
2022-11-27T05:50:01.184Z,6.55
2022-11-27T05:50:35.857Z,6.18
2022-11-27T05:51:08.477Z,5.82
2022-11-27T05:51:43.276Z,6.47
2022-11-27T05:52:21.204Z,5.68
2022-11-27T05:52:53.323Z,7.70
2022-11-27T05:53:25.534Z,6.40
2022-11-27T05:54:00.263Z,6.55
2022-11-27T05:54:32.336Z,7.22
2022-11-27T05:55:06.009Z,6.93
2022-11-27T05:55:40.674Z,5.32
2022-11-27T05:56:15.212Z,6.65
2022-11-27T05:56:47.376Z,6.15
2022-11-27T05:57:22.136Z,6.65
2022-11-27T05:57:54.204Z,5.50
2022-11-27T05:58:26.275Z,7.38
2022-11-27T05:59:01.025Z,5.72
2022-11-27T05:59:33.107Z,5.80
2022-11-27T06:00:10.233Z,5.80
2022-11-27T06:00:42.355Z,6.38
2022-11-27T06:01:16.577Z,6.40
2022-11-27T06:01:52.267Z,5.45
2022-11-27T06:02:29.177Z,5.95
2022-11-27T06:03:04.337Z,5.15
2022-11-27T06:03:39.291Z,5.43
2022-11-27T06:04:11.504Z,5.55
2022-11-27T06:04:43.589Z,5.20
2022-11-27T06:05:18.742Z,5.57
2022-11-27T06:05:51.867Z,4.93
2022-11-27T06:06:24.390Z,7.00
2022-11-27T06:06:59.320Z,4.85
2022-11-27T06:07:31.916Z,5.35
2022-11-27T06:08:04.271Z,9.23
2022-11-27T06:08:39.920Z,5.63
2022-11-27T06:09:13.382Z,6.50
2022-11-27T06:09:46.165Z,5.50
2022-11-27T06:10:20.856Z,8.30
2022-11-27T06:10:53.048Z,5.25
2022-11-27T06:11:25.165Z,5.10
2022-11-27T06:12:00.441Z,6.57
2022-11-27T06:12:33.105Z,7.72
2022-11-27T06:13:05.177Z,5.57
2022-11-27T06:13:40.656Z,5.53
2022-11-27T06:14:12.738Z,5.65
2022-11-27T06:14:44.806Z,5.85
2022-11-27T06:15:19.936Z,5.70
2022-11-27T06:15:52.013Z,6.05
2022-11-27T06:16:24.735Z,6.53
2022-11-27T06:16:59.547Z,7.00
2022-11-27T06:17:32.020Z,6.07
2022-11-27T06:18:07.437Z,5.00
2022-11-27T06:18:42.255Z,5.85
2022-11-27T06:19:14.393Z,5.20
2022-11-27T06:19:46.512Z,5.25
2022-11-27T06:20:23.883Z,5.85
2022-11-27T06:20:57.534Z,6.32
2022-11-27T06:21:29.606Z,6.13
2022-11-27T06:22:04.312Z,5.97
2022-11-27T06:22:37.411Z,5.72
2022-11-27T06:23:12.076Z,6.63
2022-11-27T06:23:47.009Z,6.25
2022-11-27T06:24:19.348Z,6.00
2022-11-27T06:24:51.414Z,5.72
2022-11-27T06:25:26.720Z,5.95
2022-11-27T06:25:58.789Z,6.95
2022-11-27T06:26:32.546Z,6.35
2022-11-27T06:27:07.260Z,5.35
2022-11-27T06:27:39.430Z,7.75
2022-11-27T06:28:11.566Z,7.35
2022-11-27T06:28:46.836Z,5.88
2022-11-27T06:29:18.914Z,6.28
2022-11-27T06:29:50.996Z,6.88
2022-11-27T06:30:25.638Z,5.70
2022-11-27T06:30:57.720Z,5.72
2022-11-27T06:31:32.983Z,6.18
2022-11-27T06:32:08.705Z,6.95
2022-11-27T06:32:40.921Z,8.23
2022-11-27T06:33:15.746Z,6.57
2022-11-27T06:33:51.525Z,7.85
2022-11-27T06:34:23.637Z,6.90
2022-11-27T06:34:55.706Z,5.40
2022-11-27T06:35:30.369Z,5.47
2022-11-27T06:36:03.007Z,6.43
2022-11-27T06:36:37.834Z,5.50
2022-11-27T06:37:13.546Z,5.70
2022-11-27T06:37:45.787Z,5.85
2022-11-27T06:38:17.960Z,7.15
2022-11-27T06:38:52.928Z,6.07
2022-11-27T06:39:25.023Z,6.03
2022-11-27T06:39:57.211Z,7.95
2022-11-27T06:40:32.150Z,5.30
2022-11-27T06:41:05.705Z,5.90
2022-11-27T06:41:38.281Z,6.88
2022-11-27T06:42:13.011Z,8.38
2022-11-27T06:42:45.107Z,7.78
2022-11-27T06:43:19.838Z,7.93
2022-11-27T06:43:51.977Z,8.25
2022-11-27T06:44:24.217Z,6.47
2022-11-27T06:44:58.904Z,6.75
2022-11-27T06:45:31.054Z,6.22
2022-11-27T06:46:04.340Z,6.45
2022-11-27T06:46:39.457Z,5.05
2022-11-27T06:47:11.599Z,5.75
2022-11-27T06:47:43.693Z,8.10
2022-11-27T06:48:20.978Z,5.80
2022-11-27T06:48:54.628Z,6.35
2022-11-27T06:49:26.751Z,5.78
2022-11-27T06:50:01.461Z,5.57
2022-11-27T06:50:33.536Z,5.85
2022-11-27T06:51:07.775Z,6.88
2022-11-27T06:51:42.571Z,6.47
2022-11-27T06:52:14.653Z,6.45
2022-11-27T06:52:46.709Z,5.22
2022-11-27T06:53:19.405Z,6.38
2022-11-27T06:53:55.339Z,6.25
2022-11-27T06:54:29.050Z,6.22
2022-11-27T06:55:01.162Z,9.55
2022-11-27T06:55:35.839Z,7.43
2022-11-27T06:56:10.223Z,7.57
2022-11-27T06:56:42.328Z,6.43
2022-11-27T06:57:17.292Z,6.60
2022-11-27T06:57:50.748Z,6.70
2022-11-27T06:58:26.479Z,6.30
2022-11-27T06:59:04.789Z,5.60
2022-11-27T06:59:36.898Z,6.38
2022-11-27T07:00:10.146Z,6.18
2022-11-27T07:00:44.845Z,6.55
2022-11-27T07:01:19.594Z,5.28
2022-11-27T07:01:54.379Z,5.35
2022-11-27T07:02:26.809Z,6.25
2022-11-27T07:02:58.928Z,6.18
2022-11-27T07:03:36.685Z,8.05
2022-11-27T07:04:10.925Z,5.85
2022-11-27T07:04:45.974Z,5.53
2022-11-27T07:05:18.034Z,5.78
2022-11-27T07:05:50.145Z,6.95
2022-11-27T07:06:28.133Z,5.75
2022-11-27T07:07:00.308Z,5.90
2022-11-27T07:07:32.459Z,6.97
2022-11-27T07:08:07.853Z,7.20
2022-11-27T07:08:40.001Z,6.82
2022-11-27T07:09:12.179Z,6.50
2022-11-27T07:09:46.949Z,6.55
2022-11-27T07:10:19.055Z,6.63
2022-11-27T07:10:51.165Z,7.53
2022-11-27T07:11:28.092Z,7.72
2022-11-27T07:12:00.172Z,6.07
2022-11-27T07:12:32.307Z,7.72
2022-11-27T07:13:07.021Z,6.97
2022-11-27T07:13:39.140Z,6.18
2022-11-27T07:14:13.863Z,6.57
2022-11-27T07:14:46.008Z,7.05
2022-11-27T07:15:18.224Z,7.13
2022-11-27T07:15:52.891Z,5.75
2022-11-27T07:16:26.412Z,7.75
2022-11-27T07:16:58.617Z,6.68
2022-11-27T07:17:33.305Z,5.57
2022-11-27T07:18:05.450Z,6.18
2022-11-27T07:18:42.972Z,5.82
2022-11-27T07:19:17.685Z,5.10
2022-11-27T07:19:49.803Z,5.13
2022-11-27T07:20:21.942Z,7.20
2022-11-27T07:20:57.012Z,7.63
2022-11-27T07:21:29.639Z,6.45
2022-11-27T07:22:01.757Z,6.07
2022-11-27T07:22:36.461Z,6.70
2022-11-27T07:23:08.545Z,7.00
2022-11-27T07:23:40.714Z,6.43
2022-11-27T07:24:15.377Z,6.32
2022-11-27T07:24:47.476Z,6.03
2022-11-27T07:25:19.637Z,6.45
2022-11-27T07:25:54.320Z,6.47
2022-11-27T07:26:28.669Z,7.30
2022-11-27T07:27:00.730Z,7.90
2022-11-27T07:27:35.429Z,7.78
2022-11-27T07:28:07.482Z,7.80
2022-11-27T07:28:39.671Z,7.18
2022-11-27T07:29:14.438Z,4.80
2022-11-27T07:29:46.564Z,6.13
2022-11-27T07:30:18.860Z,6.63
2022-11-27T07:30:57.663Z,5.93
2022-11-27T07:31:30.696Z,4.97
2022-11-27T07:32:05.510Z,5.18
2022-11-27T07:32:37.728Z,5.50
2022-11-27T07:33:12.471Z,6.40
2022-11-27T07:33:47.365Z,6.03
2022-11-27T07:34:22.757Z,6.38
2022-11-27T07:34:54.891Z,5.78
2022-11-27T07:35:27.096Z,6.50
2022-11-27T07:36:03.185Z,6.90
2022-11-27T07:36:35.255Z,6.43
2022-11-27T07:37:07.322Z,7.63
2022-11-27T07:37:42.016Z,6.75
2022-11-27T07:38:14.291Z,8.13
2022-11-27T07:38:47.172Z,6.53
2022-11-27T07:39:39.499Z,5.10
2022-11-27T07:40:15.158Z,5.88
2022-11-27T07:40:50.203Z,5.90
2022-11-27T07:41:22.550Z,6.05
2022-11-27T07:41:57.213Z,6.97
2022-11-27T07:42:38.973Z,6.70
2022-11-27T07:43:11.494Z,6.20
2022-11-27T07:43:47.624Z,6.13
2022-11-27T07:44:19.693Z,6.90
2022-11-27T07:44:51.752Z,6.35
2022-11-27T07:45:26.447Z,5.85
2022-11-27T07:45:58.672Z,6.03
2022-11-27T07:46:31.128Z,6.45